createdAt,value
2017-07-07T00:00:40.606Z,22.44
2017-07-07T00:03:08.123Z,22.52
2017-07-07T00:05:35.720Z,22.57
2017-07-07T00:08:03.233Z,22.49
2017-07-07T00:10:30.800Z,22.36
2017-07-07T00:12:58.392Z,22.44
2017-07-07T00:15:25.973Z,22.34
2017-07-07T00:17:53.492Z,22.45
2017-07-07T00:20:21.084Z,22.33
2017-07-07T00:22:48.650Z,22.30
2017-07-07T00:25:16.232Z,22.32
2017-07-07T00:27:43.832Z,22.29
2017-07-07T00:30:11.396Z,22.23
2017-07-07T00:32:38.924Z,22.26
2017-07-07T00:35:06.543Z,22.22
2017-07-07T00:37:34.184Z,22.18
2017-07-07T00:40:01.743Z,22.22
2017-07-07T00:42:29.265Z,22.30
2017-07-07T00:44:56.820Z,22.20
2017-07-07T00:47:24.352Z,22.29
2017-07-07T00:49:51.891Z,22.24
2017-07-07T00:52:19.403Z,22.21
2017-07-07T00:54:46.936Z,22.21
2017-07-07T00:57:14.443Z,22.22
2017-07-07T00:59:41.988Z,22.20
2017-07-07T01:02:09.553Z,22.24
2017-07-07T01:04:37.122Z,22.20
2017-07-07T01:07:04.630Z,22.12
2017-07-07T01:09:32.187Z,22.06
2017-07-07T01:11:59.720Z,22.18
2017-07-07T01:14:27.307Z,21.96
2017-07-07T01:16:54.887Z,22.05
2017-07-07T01:19:22.407Z,22.01
2017-07-07T01:21:49.959Z,22.05
2017-07-07T01:24:17.479Z,21.93
2017-07-07T01:26:45.040Z,21.93
2017-07-07T01:29:12.568Z,21.93
2017-07-07T01:31:40.080Z,21.92
2017-07-07T01:34:07.648Z,21.89
2017-07-07T01:36:35.352Z,21.95
2017-07-07T01:39:02.875Z,21.87
2017-07-07T01:41:30.372Z,21.84
2017-07-07T01:43:57.924Z,21.87
2017-07-07T01:46:25.438Z,21.88
2017-07-07T01:48:52.998Z,21.89
2017-07-07T01:51:20.500Z,21.96
2017-07-07T01:53:48.031Z,22.02
2017-07-07T01:56:15.544Z,22.09
2017-07-07T01:58:43.071Z,22.04
2017-07-07T02:01:10.586Z,21.83
2017-07-07T02:03:38.140Z,21.90
2017-07-07T02:06:05.653Z,21.91
2017-07-07T02:08:33.208Z,21.70
2017-07-07T02:11:00.755Z,21.66
2017-07-07T02:13:28.323Z,21.61
2017-07-07T02:15:55.842Z,21.56
2017-07-07T02:18:23.363Z,21.69
2017-07-07T02:20:50.900Z,21.57
2017-07-07T02:23:18.485Z,21.67
2017-07-07T02:25:46.027Z,21.59
2017-07-07T02:28:13.539Z,21.64
2017-07-07T02:30:41.119Z,21.63
2017-07-07T02:33:08.647Z,21.69
2017-07-07T02:35:36.179Z,21.63
2017-07-07T02:38:03.808Z,21.68
2017-07-07T02:40:31.322Z,21.58
2017-07-07T02:42:58.855Z,21.55
2017-07-07T02:45:26.386Z,21.56
2017-07-07T02:47:54.004Z,21.59
2017-07-07T02:50:21.507Z,21.60
2017-07-07T02:52:49.097Z,21.53
2017-07-07T02:55:16.618Z,21.57
2017-07-07T02:57:44.171Z,21.50
2017-07-07T03:00:11.692Z,21.51
2017-07-07T03:02:39.237Z,21.52
2017-07-07T03:05:06.752Z,21.50
2017-07-07T03:07:34.291Z,21.53
2017-07-07T03:10:01.800Z,21.60
2017-07-07T03:12:29.352Z,21.45
2017-07-07T03:14:56.899Z,21.45
2017-07-07T03:17:24.424Z,21.44
2017-07-07T03:19:51.940Z,21.47
2017-07-07T03:22:19.482Z,21.38
2017-07-07T03:24:47.004Z,21.48
2017-07-07T03:27:14.554Z,21.35
2017-07-07T03:29:42.103Z,21.17
2017-07-07T03:32:09.675Z,21.31
2017-07-07T03:34:37.243Z,21.35
2017-07-07T03:37:04.796Z,21.42
2017-07-07T03:39:32.315Z,21.50
2017-07-07T03:41:59.980Z,21.22
2017-07-07T03:44:27.503Z,21.13
2017-07-07T03:46:55.060Z,21.29
2017-07-07T03:49:22.592Z,21.13
2017-07-07T03:51:50.211Z,21.19
2017-07-07T03:54:17.845Z,21.32
2017-07-07T03:56:45.525Z,21.17
2017-07-07T03:59:13.052Z,21.34
2017-07-07T04:01:40.627Z,21.31
2017-07-07T04:04:08.219Z,21.28
2017-07-07T04:06:35.891Z,21.32
2017-07-07T04:09:03.493Z,21.15
2017-07-07T04:11:31.085Z,21.24
2017-07-07T04:13:58.656Z,21.17
2017-07-07T04:16:26.166Z,21.34
2017-07-07T04:18:53.725Z,21.33
2017-07-07T04:21:21.230Z,21.45
2017-07-07T04:23:48.781Z,21.39
2017-07-07T04:26:16.287Z,21.33
2017-07-07T04:28:43.826Z,21.49
2017-07-07T04:31:11.384Z,21.29
2017-07-07T04:33:38.949Z,21.20
2017-07-07T04:36:06.477Z,21.22
2017-07-07T04:38:34.032Z,21.29
2017-07-07T04:41:01.556Z,21.28
2017-07-07T04:43:29.095Z,21.25
2017-07-07T04:45:56.610Z,21.28
2017-07-07T04:48:24.135Z,21.30
2017-07-07T04:50:51.682Z,21.21
2017-07-07T04:53:19.304Z,21.25
2017-07-07T04:55:46.820Z,21.34
2017-07-07T04:58:14.363Z,21.33
2017-07-07T05:00:41.897Z,21.41
2017-07-07T05:03:09.476Z,21.40
2017-07-07T05:05:37.020Z,21.41
2017-07-07T05:08:04.597Z,21.35
2017-07-07T05:10:32.140Z,21.27
2017-07-07T05:12:59.676Z,21.26
2017-07-07T05:15:27.225Z,21.34
2017-07-07T05:17:54.745Z,21.36
2017-07-07T05:20:22.279Z,21.22
2017-07-07T05:22:49.814Z,21.24
2017-07-07T05:25:17.356Z,21.41
2017-07-07T05:27:44.956Z,21.44
2017-07-07T05:30:12.513Z,21.58
2017-07-07T05:32:40.017Z,21.47
2017-07-07T05:35:07.561Z,21.47
2017-07-07T05:37:35.073Z,21.66
2017-07-07T05:40:02.680Z,21.47
2017-07-07T05:42:30.192Z,21.47
2017-07-07T05:44:57.752Z,21.44
2017-07-07T05:47:25.249Z,21.48
2017-07-07T05:49:52.788Z,21.62
2017-07-07T05:52:20.303Z,21.70
2017-07-07T05:54:47.841Z,21.76
2017-07-07T05:57:15.358Z,21.83
2017-07-07T05:59:42.923Z,21.99
2017-07-07T06:02:10.492Z,21.92
2017-07-07T06:04:38.011Z,21.90
2017-07-07T06:07:05.672Z,21.94
2017-07-07T06:09:33.245Z,22.02
2017-07-07T06:12:00.821Z,22.19
2017-07-07T06:14:28.361Z,22.39
2017-07-07T06:16:55.339Z,22.33
2017-07-07T06:19:22.284Z,22.34
2017-07-07T06:21:49.248Z,22.26
2017-07-07T06:24:16.771Z,22.34
2017-07-07T06:26:44.357Z,22.40
2017-07-07T06:29:11.891Z,22.53
2017-07-07T06:31:39.514Z,22.47
2017-07-07T06:34:07.131Z,22.64
2017-07-07T06:36:34.744Z,22.83
2017-07-07T06:39:02.262Z,22.99
2017-07-07T06:41:29.801Z,22.88
2017-07-07T06:43:57.511Z,22.89
2017-07-07T06:46:25.057Z,23.03
2017-07-07T06:48:52.728Z,23.25
2017-07-07T06:51:20.254Z,23.21
2017-07-07T06:53:47.808Z,23.16
2017-07-07T06:56:15.305Z,23.22
2017-07-07T06:58:42.844Z,23.21
2017-07-07T07:01:10.360Z,23.27
2017-07-07T07:03:37.903Z,23.56
2017-07-07T07:06:05.408Z,23.50
2017-07-07T07:08:32.951Z,23.76
2017-07-07T07:11:00.461Z,23.86
2017-07-07T07:13:28.032Z,23.82
2017-07-07T07:15:55.573Z,23.94
2017-07-07T07:18:23.143Z,23.95
2017-07-07T07:20:50.656Z,24.06
2017-07-07T07:23:18.216Z,24.21
2017-07-07T07:25:45.725Z,24.25
2017-07-07T07:28:13.275Z,24.15
2017-07-07T07:30:40.855Z,24.28
2017-07-07T07:33:08.398Z,24.26
2017-07-07T07:35:35.928Z,24.31
2017-07-07T07:38:03.442Z,24.50
2017-07-07T07:40:31.100Z,24.57
2017-07-07T07:42:58.693Z,24.66
2017-07-07T07:45:26.236Z,24.76
2017-07-07T07:47:53.768Z,24.78
2017-07-07T07:50:21.318Z,24.74
2017-07-07T07:52:48.838Z,24.96
2017-07-07T07:55:16.387Z,25.07
2017-07-07T07:57:43.898Z,25.11
2017-07-07T08:00:11.435Z,25.03
2017-07-07T08:02:38.966Z,25.18
2017-07-07T08:05:06.514Z,25.30
2017-07-07T08:07:34.019Z,25.26
2017-07-07T08:10:01.576Z,25.25
2017-07-07T08:12:29.085Z,25.26
2017-07-07T08:14:56.652Z,25.46
2017-07-07T08:17:24.175Z,25.47
2017-07-07T08:19:51.684Z,25.39
2017-07-07T08:22:19.210Z,25.47
2017-07-07T08:24:46.775Z,25.50
2017-07-07T08:27:14.282Z,25.50
2017-07-07T08:29:42.037Z,25.70
2017-07-07T08:32:09.567Z,25.64
2017-07-07T08:34:37.118Z,25.73
2017-07-07T08:37:04.651Z,25.84
2017-07-07T08:39:32.256Z,25.78
2017-07-07T08:41:59.804Z,25.90
2017-07-07T08:44:27.372Z,25.85
2017-07-07T08:46:54.992Z,25.92
2017-07-07T08:49:22.632Z,26.04
2017-07-07T08:51:50.171Z,26.08
2017-07-07T08:54:17.692Z,26.12
2017-07-07T08:56:45.252Z,26.24
2017-07-07T08:59:12.764Z,26.19
2017-07-07T09:01:40.305Z,26.24
2017-07-07T09:04:07.822Z,26.32
2017-07-07T09:06:35.368Z,26.38
2017-07-07T09:09:03.089Z,26.35
2017-07-07T09:11:30.607Z,26.42
2017-07-07T09:13:58.127Z,26.41
2017-07-07T09:16:25.677Z,26.59
2017-07-07T09:18:53.201Z,26.69
2017-07-07T09:21:20.747Z,26.57
2017-07-07T09:23:48.271Z,26.84
2017-07-07T09:26:15.815Z,26.96
2017-07-07T09:28:43.352Z,26.92
2017-07-07T09:31:10.892Z,26.76
2017-07-07T09:33:38.407Z,26.81
2017-07-07T09:36:06.085Z,26.95
2017-07-07T09:38:33.716Z,27.14
2017-07-07T09:41:01.251Z,27.22
2017-07-07T09:43:28.772Z,27.33
2017-07-07T09:45:56.344Z,27.46
2017-07-07T09:48:23.914Z,27.37
2017-07-07T09:50:51.465Z,27.37
2017-07-07T09:53:18.987Z,27.39
2017-07-07T09:55:46.525Z,27.52
2017-07-07T09:58:14.075Z,27.39
2017-07-07T10:00:41.882Z,27.33
2017-07-07T10:03:09.399Z,27.67
2017-07-07T10:05:36.921Z,27.60
2017-07-07T10:08:04.479Z,27.63
2017-07-07T10:10:32.115Z,27.71
2017-07-07T10:12:59.840Z,27.82
2017-07-07T10:15:27.368Z,27.83
2017-07-07T10:17:55.202Z,27.94
2017-07-07T10:20:22.744Z,27.98
2017-07-07T10:22:50.303Z,28.15
2017-07-07T10:25:17.819Z,28.14
2017-07-07T10:27:45.351Z,28.20
2017-07-07T10:30:12.893Z,28.45
2017-07-07T10:32:40.423Z,28.80
2017-07-07T10:35:07.968Z,28.80
2017-07-07T10:37:35.527Z,28.49
2017-07-07T10:40:03.165Z,28.36
2017-07-07T10:42:30.744Z,28.73
2017-07-07T10:44:58.406Z,28.76
2017-07-07T10:47:25.952Z,28.90
2017-07-07T10:49:53.536Z,28.84
2017-07-07T10:52:21.107Z,29.01
2017-07-07T10:54:48.746Z,28.69
2017-07-07T10:57:16.263Z,28.77
2017-07-07T10:59:43.789Z,28.56
2017-07-07T11:02:11.367Z,28.63
2017-07-07T11:04:38.897Z,28.78
2017-07-07T11:07:06.449Z,28.58
2017-07-07T11:09:33.972Z,28.89
2017-07-07T11:12:01.531Z,28.77
2017-07-07T11:14:29.069Z,28.80
2017-07-07T11:16:56.597Z,28.80
2017-07-07T11:19:24.135Z,28.74
2017-07-07T11:21:51.660Z,28.78
2017-07-07T11:24:19.199Z,28.77
2017-07-07T11:26:46.716Z,29.18
2017-07-07T11:29:14.267Z,29.36
2017-07-07T11:31:41.795Z,29.58
2017-07-07T11:34:09.334Z,29.58
2017-07-07T11:36:36.888Z,29.74
2017-07-07T11:39:04.429Z,29.31
2017-07-07T11:41:32.005Z,29.44
2017-07-07T11:43:59.601Z,29.30
2017-07-07T11:46:27.216Z,29.40
2017-07-07T11:48:54.723Z,29.67
2017-07-07T11:51:22.428Z,29.80
2017-07-07T11:53:49.947Z,30.11
2017-07-07T11:56:17.513Z,30.02
2017-07-07T11:58:45.092Z,29.88
2017-07-07T12:01:12.715Z,29.95
2017-07-07T12:03:40.378Z,30.32
2017-07-07T12:06:07.900Z,30.32
2017-07-07T12:08:35.489Z,30.45
2017-07-07T12:11:03.052Z,30.63
2017-07-07T12:13:30.575Z,30.02
2017-07-07T12:15:58.243Z,30.06
2017-07-07T12:18:25.770Z,29.73
2017-07-07T12:20:53.314Z,29.82
2017-07-07T12:23:20.859Z,29.93
2017-07-07T12:25:48.377Z,30.16
2017-07-07T12:28:16.828Z,30.34
2017-07-07T12:30:44.343Z,30.51
2017-07-07T12:33:11.939Z,30.46
2017-07-07T12:35:39.456Z,30.38
2017-07-07T12:38:07.022Z,30.79
2017-07-07T12:40:34.555Z,30.70
2017-07-07T12:43:02.101Z,30.60
2017-07-07T12:45:29.626Z,30.60
2017-07-07T12:47:57.184Z,31.22
2017-07-07T12:50:24.704Z,31.12
2017-07-07T12:52:52.275Z,31.23
2017-07-07T12:55:19.791Z,30.98
2017-07-07T12:57:47.393Z,31.08
2017-07-07T13:00:14.940Z,30.77
2017-07-07T13:02:42.517Z,30.92
2017-07-07T13:05:10.030Z,31.22
2017-07-07T13:07:37.620Z,31.28
2017-07-07T13:10:05.171Z,31.04
2017-07-07T13:12:32.713Z,31.36
2017-07-07T13:15:00.266Z,31.08
2017-07-07T13:17:27.896Z,30.85
2017-07-07T13:19:55.477Z,30.60
2017-07-07T13:22:23.010Z,30.58
2017-07-07T13:24:50.523Z,31.12
2017-07-07T13:27:18.082Z,31.19
2017-07-07T13:29:45.616Z,31.21
2017-07-07T13:32:13.173Z,31.40
2017-07-07T13:34:40.672Z,31.42
2017-07-07T13:37:08.224Z,31.57
2017-07-07T13:39:35.736Z,31.42
2017-07-07T13:42:03.302Z,31.24
2017-07-07T13:44:30.872Z,31.33
2017-07-07T13:46:58.403Z,31.38
2017-07-07T13:49:26.085Z,31.32
2017-07-07T13:51:53.612Z,31.50
2017-07-07T13:54:21.113Z,31.81
2017-07-07T13:56:48.664Z,31.78
2017-07-07T13:59:16.184Z,31.86
2017-07-07T14:01:43.828Z,31.80
2017-07-07T14:04:11.348Z,32.11
2017-07-07T14:06:38.861Z,32.12
2017-07-07T14:09:06.404Z,31.91
2017-07-07T14:11:33.923Z,31.95
2017-07-07T14:14:01.544Z,32.50
2017-07-07T14:16:29.064Z,32.42
2017-07-07T14:18:56.612Z,31.81
2017-07-07T14:21:24.123Z,32.38
2017-07-07T14:23:51.787Z,32.22
2017-07-07T14:26:19.307Z,32.14
2017-07-07T14:28:46.851Z,32.14
2017-07-07T14:31:14.406Z,32.67
2017-07-07T14:33:41.925Z,32.10
2017-07-07T14:36:09.492Z,32.27
2017-07-07T14:38:36.992Z,32.34
2017-07-07T14:41:04.689Z,32.25
2017-07-07T14:43:32.229Z,32.48
2017-07-07T14:45:59.743Z,32.20
2017-07-07T14:48:27.312Z,31.96
2017-07-07T14:50:54.844Z,31.78
2017-07-07T14:53:22.400Z,31.84
2017-07-07T14:55:49.904Z,31.97
2017-07-07T14:58:17.697Z,32.09
2017-07-07T15:00:45.224Z,31.88
2017-07-07T15:03:12.740Z,31.79
2017-07-07T15:05:40.292Z,31.87
2017-07-07T15:08:07.819Z,31.88
2017-07-07T15:10:35.375Z,31.68
2017-07-07T15:13:02.900Z,31.78
2017-07-07T15:15:30.820Z,32.41
2017-07-07T15:17:58.529Z,31.97
2017-07-07T15:20:26.044Z,31.81
2017-07-07T15:22:53.602Z,31.97
2017-07-07T15:25:21.132Z,32.07
2017-07-07T15:27:48.702Z,32.43
2017-07-07T15:30:16.228Z,32.82
2017-07-07T15:32:43.795Z,32.39
2017-07-07T15:35:11.313Z,32.40
2017-07-07T15:37:39.039Z,32.50
2017-07-07T15:40:06.557Z,32.72
2017-07-07T15:42:34.103Z,32.06
2017-07-07T15:45:01.652Z,31.56
2017-07-07T15:47:29.426Z,31.67
2017-07-07T15:49:57.401Z,31.89
2017-07-07T15:52:25.026Z,32.14
2017-07-07T15:54:52.548Z,31.78
2017-07-07T15:57:20.260Z,31.66
2017-07-07T15:59:47.866Z,31.79
2017-07-07T16:02:15.419Z,31.90
2017-07-07T16:07:16.940Z,31.32
2017-07-07T16:09:44.450Z,31.03
2017-07-07T16:12:11.986Z,30.42
2017-07-07T16:14:39.553Z,30.82
2017-07-07T16:17:07.067Z,31.15
2017-07-07T16:19:34.804Z,30.96
2017-07-07T16:22:02.312Z,30.96
2017-07-07T16:24:29.890Z,31.11
2017-07-07T16:26:57.444Z,30.83
2017-07-07T16:29:26.694Z,30.65
2017-07-07T16:31:54.476Z,30.71
2017-07-07T16:34:21.996Z,30.57
2017-07-07T16:36:49.606Z,30.99
2017-07-07T16:39:17.272Z,30.65
2017-07-07T16:41:44.880Z,30.16
2017-07-07T16:44:12.422Z,30.09
2017-07-07T16:46:40.004Z,30.42
2017-07-07T16:49:07.562Z,30.56
2017-07-07T16:51:35.079Z,30.31
2017-07-07T16:54:03.579Z,30.14
2017-07-07T16:56:31.097Z,30.59
2017-07-07T16:58:58.645Z,30.31
2017-07-07T17:01:26.263Z,30.19
2017-07-07T17:03:53.789Z,30.17
2017-07-07T17:06:21.460Z,30.48
2017-07-07T17:08:48.989Z,30.38
2017-07-07T17:11:16.515Z,30.27
2017-07-07T17:13:44.084Z,30.28
2017-07-07T17:16:11.605Z,30.50
2017-07-07T17:18:39.198Z,30.67
2017-07-07T17:21:06.743Z,30.42
2017-07-07T17:23:34.736Z,30.19
2017-07-07T17:26:02.352Z,30.05
2017-07-07T17:28:29.893Z,30.41
2017-07-07T17:30:57.447Z,30.26
2017-07-07T17:33:25.044Z,29.97
2017-07-07T17:35:52.659Z,29.92
2017-07-07T17:38:20.221Z,29.70
2017-07-07T17:40:47.823Z,29.55
2017-07-07T17:43:15.351Z,29.71
2017-07-07T17:45:43.288Z,29.92
2017-07-07T17:48:10.805Z,29.90
2017-07-07T17:50:38.333Z,29.77
2017-07-07T17:53:05.909Z,29.66
2017-07-07T17:55:33.454Z,29.74
2017-07-07T17:58:01.060Z,29.85
2017-07-07T18:00:28.649Z,29.63
2017-07-07T18:02:56.594Z,29.68
2017-07-07T18:05:24.115Z,29.62
2017-07-07T18:07:51.636Z,29.72
2017-07-07T18:10:19.189Z,29.58
2017-07-07T18:12:46.714Z,29.52
2017-07-07T18:15:14.260Z,29.22
2017-07-07T18:17:41.796Z,29.05
2017-07-07T18:20:09.336Z,29.01
2017-07-07T18:22:36.877Z,28.87
2017-07-07T18:25:04.560Z,28.93
2017-07-07T18:27:32.077Z,28.90
2017-07-07T18:29:59.604Z,28.91
2017-07-07T18:32:27.167Z,29.05
2017-07-07T18:34:54.700Z,29.09
2017-07-07T18:37:22.289Z,29.04
2017-07-07T18:39:49.825Z,28.65
2017-07-07T18:42:17.710Z,28.78
2017-07-07T18:44:45.252Z,28.41
2017-07-07T18:47:12.768Z,28.31
2017-07-07T18:49:40.322Z,28.19
2017-07-07T18:52:07.847Z,28.24
2017-07-07T18:54:35.444Z,28.17
2017-07-07T18:57:02.960Z,27.99
2017-07-07T18:59:30.528Z,27.83
2017-07-07T19:01:58.102Z,27.77
2017-07-07T19:04:25.812Z,27.77
2017-07-07T19:06:53.332Z,27.77
2017-07-07T19:09:20.863Z,27.87
2017-07-07T19:11:48.409Z,27.78
2017-07-07T19:14:15.955Z,27.71
2017-07-07T19:16:43.520Z,27.82
2017-07-07T19:19:11.043Z,28.04
2017-07-07T19:21:38.587Z,27.82
2017-07-07T19:24:06.115Z,27.72
2017-07-07T19:26:33.688Z,27.52
2017-07-07T19:29:01.245Z,27.48
2017-07-07T19:31:28.792Z,27.50
2017-07-07T19:33:56.386Z,27.45
2017-07-07T19:36:23.951Z,27.36
2017-07-07T19:38:51.533Z,27.42
2017-07-07T19:41:19.057Z,27.39
2017-07-07T19:43:46.604Z,27.26
2017-07-07T19:46:14.135Z,27.42
2017-07-07T19:48:41.720Z,27.18
2017-07-07T19:51:09.358Z,27.20
2017-07-07T19:53:36.945Z,26.98
2017-07-07T19:56:04.495Z,26.88
2017-07-07T19:58:32.019Z,27.06
2017-07-07T20:00:59.566Z,26.99
2017-07-07T20:03:27.108Z,27.04
2017-07-07T20:05:54.863Z,27.22
2017-07-07T20:08:22.406Z,26.95
2017-07-07T20:10:49.957Z,26.99
2017-07-07T20:13:17.536Z,26.63
2017-07-07T20:15:45.117Z,26.53
2017-07-07T20:18:12.642Z,26.67
2017-07-07T20:20:40.209Z,26.79
2017-07-07T20:23:07.743Z,26.47
2017-07-07T20:25:35.265Z,26.50
2017-07-07T20:28:02.833Z,26.51
2017-07-07T20:30:30.371Z,26.42
2017-07-07T20:32:57.915Z,26.43
2017-07-07T20:35:25.436Z,26.37
2017-07-07T20:37:53.000Z,26.46
2017-07-07T20:40:20.558Z,26.44
2017-07-07T20:42:48.073Z,26.40
2017-07-07T20:45:15.625Z,26.16
2017-07-07T20:47:43.155Z,26.02
2017-07-07T20:50:10.705Z,26.02
2017-07-07T20:52:38.242Z,26.12
2017-07-07T20:55:05.789Z,25.97
2017-07-07T20:57:33.312Z,26.01
2017-07-07T21:00:00.893Z,26.05
2017-07-07T21:02:28.425Z,25.98
2017-07-07T21:04:56.004Z,25.85
2017-07-07T21:07:23.539Z,25.76
2017-07-07T21:09:51.079Z,25.83
2017-07-07T21:12:18.703Z,25.71
2017-07-07T21:14:46.211Z,25.61
2017-07-07T21:19:40.548Z,25.62
2017-07-07T21:22:08.121Z,25.60
2017-07-07T21:24:35.658Z,25.56
2017-07-07T21:27:03.247Z,25.41
2017-07-07T21:29:30.792Z,25.42
2017-07-07T21:31:58.312Z,25.36
2017-07-07T21:34:25.873Z,25.30
2017-07-07T21:36:53.412Z,25.21
2017-07-07T21:39:20.930Z,25.14
2017-07-07T21:41:48.739Z,25.07
2017-07-07T21:44:16.260Z,25.07
2017-07-07T21:46:43.778Z,25.21
2017-07-07T21:49:11.311Z,25.11
2017-07-07T21:51:38.871Z,25.02
2017-07-07T21:54:06.408Z,24.88
2017-07-07T21:56:33.927Z,24.95
2017-07-07T21:59:01.556Z,24.81
2017-07-07T22:01:29.096Z,24.91
2017-07-07T22:03:56.650Z,24.98
2017-07-07T22:06:24.174Z,24.83
2017-07-07T22:08:51.709Z,24.73
2017-07-07T22:11:19.264Z,24.68
2017-07-07T22:13:46.830Z,24.66
2017-07-07T22:16:14.340Z,24.51
2017-07-07T22:18:41.903Z,24.49
2017-07-07T22:21:09.413Z,24.45
2017-07-07T22:23:36.957Z,24.47
2017-07-07T22:26:04.485Z,24.49
2017-07-07T22:28:32.035Z,24.55
2017-07-07T22:30:59.908Z,24.41
2017-07-07T22:33:27.463Z,24.40
2017-07-07T22:35:54.978Z,24.29
2017-07-07T22:38:22.488Z,24.31
2017-07-07T22:40:50.036Z,24.26
2017-07-07T22:43:17.701Z,24.25
2017-07-07T22:45:45.261Z,24.19
2017-07-07T22:48:12.788Z,24.09
2017-07-07T22:50:40.408Z,24.05
2017-07-07T22:53:07.943Z,24.11
2017-07-07T22:55:35.501Z,24.12
2017-07-07T22:58:03.036Z,24.07
2017-07-07T23:00:30.622Z,24.02
2017-07-07T23:02:58.136Z,24.10
2017-07-07T23:05:25.874Z,23.88
2017-07-07T23:07:53.388Z,24.01
2017-07-07T23:10:20.913Z,23.97
2017-07-07T23:12:52.095Z,24.06
2017-07-07T23:15:19.783Z,23.95
2017-07-07T23:17:47.409Z,23.72
2017-07-07T23:20:14.941Z,23.61
2017-07-07T23:22:42.501Z,23.67
2017-07-07T23:25:10.027Z,23.53
2017-07-07T23:27:37.604Z,23.67
2017-07-07T23:30:05.132Z,23.70
2017-07-07T23:32:32.895Z,23.92
2017-07-07T23:35:00.427Z,23.78
2017-07-07T23:37:27.949Z,23.78
2017-07-07T23:39:55.492Z,23.72
2017-07-07T23:42:23.108Z,23.80
2017-07-07T23:44:50.616Z,23.92
2017-07-07T23:47:18.171Z,23.65
2017-07-07T23:49:45.780Z,23.56
2017-07-07T23:52:13.299Z,23.51
2017-07-07T23:54:40.868Z,23.47
2017-07-07T23:57:08.380Z,23.43
2017-07-07T23:59:35.940Z,23.40
